WJA227 CYWG-CYYC
Flight info
| Callsign | WJA227 |
|---|---|
| Flight time | 1h 49m |
| Altitude | 38000 |
| Route | LIVBI DCT DUKPO DCT FAREN DCT GUDOG DCT PIKLA DCT BIRKO BIRKO6 |
| Aircraft | B737/M-SDE2E3FGHIRWXY/LB1 |
Departure
| Time | 2026-05-08 16:53 |
|---|---|
| Airport | Winnipeg / James Armstrong Richardson International Airport (CYWG) |
Arrival
| Time | 2026-05-08 18:43 |
|---|---|
| Airport | Calgary International Airport (CYYC) |
| Time | Latitude | Longitude | Altitude | Speed | Heading |
|---|---|---|---|---|---|
| 2026-05-08 16:36 | 49.90682 | -97.22281 | 785 ft | 0 kts | 187° |
| 2026-05-08 16:43 | 49.90695 | -97.22279 | 785 ft | 3 kts | 187° |
| 2026-05-08 16:43 | 49.90715 | -97.22275 | 785 ft | 3 kts | 187° |
| 2026-05-08 16:43 | 49.90735 | -97.22271 | 785 ft | 3 kts | 187° |
| 2026-05-08 16:44 | 49.90752 | -97.22267 | 785 ft | 1 kts | 187° |
| 2026-05-08 16:44 | 49.90753 | -97.22267 | 785 ft | 0 kts | 187° |
| 2026-05-08 16:46 | 49.90746 | -97.22280 | 785 ft | 3 kts | 252° |
| 2026-05-08 16:46 | 49.90762 | -97.22353 | 785 ft | 9 kts | 276° |
| 2026-05-08 16:47 | 49.90764 | -97.22462 | 785 ft | 13 kts | 266° |
| 2026-05-08 16:47 | 49.90750 | -97.22638 | 785 ft | 18 kts | 259° |
| 2026-05-08 16:47 | 49.90725 | -97.22829 | 785 ft | 18 kts | 259° |
| 2026-05-08 16:47 | 49.90701 | -97.23012 | 785 ft | 17 kts | 258° |
| 2026-05-08 16:48 | 49.90678 | -97.23189 | 785 ft | 16 kts | 258° |
| 2026-05-08 16:48 | 49.90603 | -97.23332 | 785 ft | 23 kts | 200° |
| 2026-05-08 16:48 | 49.90451 | -97.23412 | 787 ft | 23 kts | 199° |
| 2026-05-08 16:48 | 49.90303 | -97.23446 | 785 ft | 22 kts | 146° |
| 2026-05-08 16:49 | 49.90188 | -97.23290 | 785 ft | 22 kts | 136° |
| 2026-05-08 16:49 | 49.90080 | -97.23133 | 785 ft | 21 kts | 137° |
| 2026-05-08 16:49 | 49.89973 | -97.22985 | 785 ft | 20 kts | 140° |
| 2026-05-08 16:49 | 49.89869 | -97.22841 | 785 ft | 20 kts | 131° |
| 2026-05-08 16:50 | 49.89783 | -97.22680 | 785 ft | 19 kts | 129° |
| 2026-05-08 16:50 | 49.89699 | -97.22546 | 785 ft | 15 kts | 166° |
| 2026-05-08 16:50 | 49.89612 | -97.22650 | 785 ft | 20 kts | 229° |
| 2026-05-08 16:50 | 49.89519 | -97.22813 | 783 ft | 20 kts | 229° |
| 2026-05-08 16:51 | 49.89487 | -97.23006 | 785 ft | 19 kts | 277° |
| 2026-05-08 16:51 | 49.89504 | -97.23211 | 785 ft | 19 kts | 277° |
| 2026-05-08 16:51 | 49.89519 | -97.23409 | 785 ft | 18 kts | 277° |
| 2026-05-08 16:51 | 49.89538 | -97.23657 | 785 ft | 28 kts | 276° |
| 2026-05-08 16:52 | 49.89553 | -97.23857 | 785 ft | 27 kts | 277° |
| 2026-05-08 16:52 | 49.89583 | -97.24122 | 787 ft | 22 kts | 304° |
| 2026-05-08 16:52 | 49.89727 | -97.24138 | 788 ft | 23 kts | 9° |
| 2026-05-08 16:52 | 49.90084 | -97.24059 | 784 ft | 88 kts | 8° |
| 2026-05-08 16:53 | 49.92007 | -97.23620 | 1226 ft | 169 kts | 7° |
| 2026-05-08 16:53 | 49.93222 | -97.23384 | 1968 ft | 179 kts | 7° |
| 2026-05-08 16:53 | 49.94453 | -97.23097 | 2932 ft | 182 kts | 8° |
| 2026-05-08 16:54 | 49.95787 | -97.22760 | 3290 ft | 208 kts | 8° |
| 2026-05-08 16:54 | 49.97286 | -97.22432 | 3630 ft | 233 kts | 359° |
| 2026-05-08 16:54 | 49.98894 | -97.23126 | 4222 ft | 248 kts | 328° |
| 2026-05-08 16:54 | 50.00085 | -97.25026 | 5297 ft | 247 kts | 299° |
| 2026-05-08 16:55 | 50.00474 | -97.27610 | 6388 ft | 250 kts | 271° |
| 2026-05-08 16:55 | 50.00192 | -97.30312 | 7297 ft | 258 kts | 261° |
| 2026-05-08 16:55 | 49.99712 | -97.33051 | 8112 ft | 266 kts | 258° |
| 2026-05-08 16:55 | 49.99189 | -97.35810 | 9083 ft | 267 kts | 259° |
| 2026-05-08 16:56 | 49.98666 | -97.38584 | 9999 ft | 269 kts | 259° |
| 2026-05-08 16:56 | 49.98139 | -97.41431 | 10562 ft | 284 kts | 259° |
| 2026-05-08 16:56 | 49.97581 | -97.44522 | 10762 ft | 310 kts | 259° |
| 2026-05-08 16:56 | 49.96980 | -97.47867 | 11037 ft | 331 kts | 259° |
| 2026-05-08 16:57 | 49.96352 | -97.51357 | 11709 ft | 338 kts | 259° |
| 2026-05-08 16:57 | 49.95714 | -97.54891 | 12532 ft | 341 kts | 259° |
| 2026-05-08 16:57 | 49.95072 | -97.58458 | 13377 ft | 345 kts | 260° |
| 2026-05-08 16:57 | 49.94425 | -97.62064 | 14145 ft | 349 kts | 260° |
| 2026-05-08 16:58 | 49.93771 | -97.65713 | 14889 ft | 353 kts | 260° |
| 2026-05-08 16:58 | 49.93107 | -97.69407 | 15664 ft | 357 kts | 260° |
| 2026-05-08 16:58 | 49.92490 | -97.73142 | 16439 ft | 357 kts | 265° |
| 2026-05-08 16:58 | 49.92270 | -97.76960 | 17197 ft | 355 kts | 275° |
| 2026-05-08 16:59 | 49.92434 | -97.80771 | 17968 ft | 353 kts | 283° |
| 2026-05-08 16:59 | 49.92878 | -97.84512 | 18633 ft | 356 kts | 285° |
| 2026-05-08 16:59 | 49.93370 | -97.88323 | 19293 ft | 360 kts | 285° |
| 2026-05-08 16:59 | 49.93871 | -97.92147 | 19941 ft | 363 kts | 285° |
| 2026-05-08 17:00 | 49.94372 | -97.96008 | 20581 ft | 367 kts | 285° |
| 2026-05-08 17:00 | 49.94872 | -97.99912 | 21221 ft | 370 kts | 285° |
| 2026-05-08 17:00 | 49.95370 | -98.03856 | 21831 ft | 374 kts | 285° |
| 2026-05-08 17:00 | 49.95869 | -98.07842 | 22436 ft | 378 kts | 284° |
| 2026-05-08 17:01 | 49.96369 | -98.11870 | 23032 ft | 382 kts | 284° |
| 2026-05-08 17:01 | 49.96871 | -98.15943 | 23572 ft | 386 kts | 284° |
| 2026-05-08 17:01 | 49.97375 | -98.20047 | 24048 ft | 389 kts | 284° |
| 2026-05-08 17:01 | 49.97881 | -98.24186 | 24560 ft | 390 kts | 284° |
| 2026-05-08 17:02 | 49.98387 | -98.28338 | 25078 ft | 392 kts | 284° |
| 2026-05-08 17:02 | 49.98895 | -98.32518 | 25548 ft | 395 kts | 284° |
| 2026-05-08 17:02 | 49.99406 | -98.36728 | 25994 ft | 398 kts | 284° |
| 2026-05-08 17:02 | 49.99919 | -98.40975 | 26448 ft | 401 kts | 284° |
| 2026-05-08 17:03 | 50.00433 | -98.45244 | 26893 ft | 403 kts | 284° |
| 2026-05-08 17:03 | 50.00949 | -98.49545 | 27329 ft | 406 kts | 284° |
| 2026-05-08 17:03 | 50.01467 | -98.53869 | 27747 ft | 409 kts | 284° |
| 2026-05-08 17:03 | 50.01986 | -98.58227 | 28157 ft | 411 kts | 284° |
| 2026-05-08 17:04 | 50.02507 | -98.62609 | 28550 ft | 414 kts | 284° |
| 2026-05-08 17:04 | 50.03029 | -98.67019 | 28940 ft | 416 kts | 284° |
| 2026-05-08 17:04 | 50.03553 | -98.71459 | 29315 ft | 418 kts | 284° |
| 2026-05-08 17:04 | 50.04071 | -98.75862 | 29722 ft | 420 kts | 284° |
| 2026-05-08 17:05 | 50.04593 | -98.80320 | 30195 ft | 418 kts | 284° |
| 2026-05-08 17:05 | 50.05109 | -98.84750 | 30638 ft | 416 kts | 284° |
| 2026-05-08 17:05 | 50.05625 | -98.89182 | 31025 ft | 416 kts | 284° |
| 2026-05-08 17:05 | 50.06140 | -98.93614 | 31372 ft | 417 kts | 284° |
| 2026-05-08 17:06 | 50.06655 | -98.98054 | 31744 ft | 416 kts | 284° |
| 2026-05-08 17:06 | 50.07165 | -99.02486 | 32155 ft | 416 kts | 284° |
| 2026-05-08 17:06 | 50.07673 | -99.06912 | 32518 ft | 415 kts | 284° |
| 2026-05-08 17:06 | 50.08178 | -99.11342 | 32855 ft | 416 kts | 284° |
| 2026-05-08 17:07 | 50.08682 | -99.15771 | 33194 ft | 416 kts | 284° |
| 2026-05-08 17:07 | 50.09183 | -99.20193 | 33604 ft | 413 kts | 285° |
| 2026-05-08 17:07 | 50.09678 | -99.24580 | 33998 ft | 411 kts | 285° |
| 2026-05-08 17:07 | 50.10172 | -99.28965 | 34199 ft | 412 kts | 285° |
| 2026-05-08 17:08 | 50.10668 | -99.33376 | 34371 ft | 415 kts | 285° |
| 2026-05-08 17:08 | 50.11164 | -99.37806 | 34610 ft | 415 kts | 284° |
| 2026-05-08 17:08 | 50.11657 | -99.42231 | 34867 ft | 415 kts | 284° |
| 2026-05-08 17:08 | 50.12149 | -99.46660 | 35090 ft | 415 kts | 284° |
| 2026-05-08 17:09 | 50.12639 | -99.51092 | 35296 ft | 416 kts | 284° |
| 2026-05-08 17:09 | 50.13131 | -99.55548 | 35522 ft | 417 kts | 284° |
| 2026-05-08 17:09 | 50.13619 | -99.59996 | 35747 ft | 417 kts | 284° |
| 2026-05-08 17:09 | 50.14106 | -99.64449 | 35950 ft | 418 kts | 284° |
| 2026-05-08 17:10 | 50.14592 | -99.68908 | 36177 ft | 416 kts | 284° |
| 2026-05-08 17:10 | 50.15075 | -99.73355 | 36453 ft | 415 kts | 284° |
| 2026-05-08 17:10 | 50.15556 | -99.77788 | 36642 ft | 416 kts | 284° |
| 2026-05-08 17:10 | 50.16037 | -99.82244 | 36806 ft | 417 kts | 284° |
| 2026-05-08 17:11 | 50.16520 | -99.86711 | 37017 ft | 417 kts | 285° |
| 2026-05-08 17:11 | 50.17187 | -99.91086 | 37235 ft | 414 kts | 289° |
| 2026-05-08 17:11 | 50.17962 | -99.95408 | 37437 ft | 414 kts | 290° |
| 2026-05-08 17:11 | 50.18745 | -99.99666 | 37591 ft | 415 kts | 290° |
| 2026-05-08 17:12 | 50.19542 | -100.03993 | 37764 ft | 415 kts | 290° |
| 2026-05-08 17:12 | 50.20350 | -100.08397 | 37801 ft | 418 kts | 290° |
| 2026-05-08 17:12 | 50.21919 | -100.17061 | 37785 ft | 415 kts | 290° |
| 2026-05-08 17:13 | 50.23456 | -100.25676 | 37805 ft | 409 kts | 290° |
| 2026-05-08 17:13 | 50.24967 | -100.34201 | 37809 ft | 405 kts | 290° |
| 2026-05-08 17:14 | 50.26466 | -100.42688 | 37830 ft | 408 kts | 290° |
| 2026-05-08 17:14 | 50.27988 | -100.51333 | 37830 ft | 416 kts | 289° |
| 2026-05-08 17:15 | 50.29514 | -100.60066 | 37819 ft | 417 kts | 289° |
| 2026-05-08 17:15 | 50.31036 | -100.68815 | 37817 ft | 416 kts | 290° |
| 2026-05-08 17:16 | 50.32546 | -100.77553 | 37826 ft | 416 kts | 289° |
| 2026-05-08 17:16 | 50.34047 | -100.86281 | 37827 ft | 415 kts | 289° |
| 2026-05-08 17:17 | 50.35538 | -100.94983 | 37830 ft | 413 kts | 289° |
| 2026-05-08 17:17 | 50.37017 | -101.03659 | 37832 ft | 412 kts | 289° |
| 2026-05-08 17:18 | 50.38485 | -101.12319 | 37837 ft | 411 kts | 289° |
| 2026-05-08 17:18 | 50.39942 | -101.20945 | 37842 ft | 409 kts | 289° |
| 2026-05-08 17:19 | 50.41387 | -101.29550 | 37844 ft | 408 kts | 289° |
| 2026-05-08 17:19 | 50.42813 | -101.38083 | 37845 ft | 407 kts | 289° |
| 2026-05-08 17:20 | 50.44240 | -101.46669 | 37841 ft | 407 kts | 289° |
| 2026-05-08 17:20 | 50.45662 | -101.55262 | 37850 ft | 407 kts | 289° |
| 2026-05-08 17:21 | 50.47077 | -101.63858 | 37853 ft | 407 kts | 289° |
| 2026-05-08 17:21 | 50.48486 | -101.72456 | 37838 ft | 406 kts | 289° |
| 2026-05-08 17:22 | 50.49887 | -101.81058 | 37857 ft | 406 kts | 289° |
| 2026-05-08 17:22 | 50.51280 | -101.89653 | 37861 ft | 406 kts | 289° |
| 2026-05-08 17:23 | 50.52670 | -101.98270 | 37851 ft | 407 kts | 289° |
| 2026-05-08 17:23 | 50.54054 | -102.06894 | 37863 ft | 407 kts | 289° |
| 2026-05-08 17:24 | 50.55432 | -102.15531 | 37853 ft | 407 kts | 289° |
| 2026-05-08 17:24 | 50.56801 | -102.24157 | 37856 ft | 406 kts | 289° |
| 2026-05-08 17:25 | 50.58158 | -102.32755 | 37859 ft | 404 kts | 289° |
| 2026-05-08 17:25 | 50.59506 | -102.41336 | 37861 ft | 403 kts | 289° |
| 2026-05-08 17:26 | 50.60844 | -102.49893 | 37865 ft | 402 kts | 289° |
| 2026-05-08 17:26 | 50.62172 | -102.58438 | 37861 ft | 401 kts | 289° |
| 2026-05-08 17:27 | 50.63483 | -102.66910 | 37862 ft | 401 kts | 289° |
| 2026-05-08 17:27 | 50.64793 | -102.75423 | 37856 ft | 399 kts | 289° |
| 2026-05-08 17:28 | 50.66093 | -102.83918 | 37858 ft | 398 kts | 289° |
| 2026-05-08 17:28 | 50.67374 | -102.92329 | 37870 ft | 402 kts | 289° |
| 2026-05-08 17:29 | 50.68688 | -103.00984 | 37868 ft | 410 kts | 289° |
| 2026-05-08 17:29 | 50.70014 | -103.09780 | 37865 ft | 415 kts | 289° |
| 2026-05-08 17:30 | 50.71341 | -103.18654 | 37859 ft | 416 kts | 289° |
| 2026-05-08 17:30 | 50.72655 | -103.27492 | 37839 ft | 415 kts | 289° |
| 2026-05-08 17:31 | 50.73958 | -103.36312 | 37838 ft | 409 kts | 289° |
| 2026-05-08 17:31 | 50.75229 | -103.44973 | 37837 ft | 402 kts | 289° |
| 2026-05-08 17:32 | 50.76485 | -103.53549 | 37855 ft | 399 kts | 289° |
| 2026-05-08 17:32 | 50.77729 | -103.62080 | 37864 ft | 398 kts | 289° |
| 2026-05-08 17:33 | 50.78963 | -103.70594 | 37860 ft | 398 kts | 289° |
| 2026-05-08 17:33 | 50.80195 | -103.79135 | 37849 ft | 399 kts | 289° |
| 2026-05-08 17:34 | 50.81425 | -103.87718 | 37851 ft | 401 kts | 288° |
| 2026-05-08 17:34 | 50.82655 | -103.96356 | 37849 ft | 404 kts | 288° |
| 2026-05-08 17:35 | 50.83884 | -104.05037 | 37849 ft | 405 kts | 288° |
| 2026-05-08 17:35 | 50.85111 | -104.13758 | 37850 ft | 407 kts | 288° |
| 2026-05-08 17:36 | 50.86128 | -104.21024 | 37847 ft | 407 kts | 288° |
| 2026-05-08 17:36 | 50.87343 | -104.29760 | 37832 ft | 406 kts | 289° |
| 2026-05-08 17:37 | 50.88548 | -104.38470 | 37836 ft | 404 kts | 288° |
| 2026-05-08 17:37 | 50.89743 | -104.47155 | 37841 ft | 403 kts | 288° |
| 2026-05-08 17:38 | 50.90928 | -104.55816 | 37847 ft | 402 kts | 288° |
| 2026-05-08 17:38 | 50.92106 | -104.64478 | 37843 ft | 402 kts | 288° |
| 2026-05-08 17:39 | 50.93276 | -104.73130 | 37847 ft | 401 kts | 288° |
| 2026-05-08 17:39 | 50.94437 | -104.81765 | 37843 ft | 399 kts | 288° |
| 2026-05-08 17:40 | 50.95585 | -104.90365 | 37846 ft | 398 kts | 288° |
| 2026-05-08 17:40 | 50.96726 | -104.98960 | 37843 ft | 398 kts | 288° |
| 2026-05-08 17:41 | 50.97859 | -105.07548 | 37842 ft | 398 kts | 288° |
| 2026-05-08 17:41 | 50.98979 | -105.16079 | 37840 ft | 397 kts | 288° |
| 2026-05-08 17:42 | 51.00106 | -105.24726 | 37842 ft | 397 kts | 288° |
| 2026-05-08 17:42 | 51.01218 | -105.33310 | 37833 ft | 396 kts | 288° |
| 2026-05-08 17:43 | 51.02320 | -105.41868 | 37854 ft | 395 kts | 288° |
| 2026-05-08 17:43 | 51.03409 | -105.50367 | 37833 ft | 395 kts | 288° |
| 2026-05-08 17:44 | 51.04499 | -105.58937 | 37830 ft | 395 kts | 288° |
| 2026-05-08 17:44 | 51.05582 | -105.67503 | 37831 ft | 395 kts | 288° |
| 2026-05-08 17:45 | 51.06660 | -105.76080 | 37830 ft | 396 kts | 288° |
| 2026-05-08 17:45 | 51.07731 | -105.84663 | 37818 ft | 394 kts | 288° |
| 2026-05-08 17:46 | 51.08791 | -105.93210 | 37829 ft | 393 kts | 288° |
| 2026-05-08 17:46 | 51.09842 | -106.01740 | 37831 ft | 393 kts | 288° |
| 2026-05-08 17:47 | 51.10887 | -106.10264 | 37832 ft | 392 kts | 288° |
| 2026-05-08 17:47 | 51.11750 | -106.17350 | 37835 ft | 392 kts | 288° |
| 2026-05-08 17:48 | 51.12956 | -106.27313 | 37832 ft | 392 kts | 288° |
| 2026-05-08 17:48 | 51.13980 | -106.35840 | 37808 ft | 392 kts | 288° |
| 2026-05-08 17:49 | 51.14995 | -106.44350 | 37830 ft | 391 kts | 288° |
| 2026-05-08 17:49 | 51.16003 | -106.52850 | 37834 ft | 390 kts | 288° |
| 2026-05-08 17:50 | 51.17004 | -106.61343 | 37840 ft | 390 kts | 287° |
| 2026-05-08 17:50 | 51.17999 | -106.69841 | 37843 ft | 390 kts | 287° |
| 2026-05-08 17:51 | 51.18987 | -106.78338 | 37839 ft | 390 kts | 287° |
| 2026-05-08 17:51 | 51.19969 | -106.86838 | 37848 ft | 390 kts | 287° |
| 2026-05-08 17:52 | 51.20941 | -106.95325 | 37829 ft | 389 kts | 287° |
| 2026-05-08 17:53 | 51.22383 | -107.07994 | 37844 ft | 389 kts | 287° |
| 2026-05-08 17:53 | 51.23341 | -107.16482 | 37846 ft | 389 kts | 287° |
| 2026-05-08 17:54 | 51.24292 | -107.24970 | 37855 ft | 389 kts | 287° |
| 2026-05-08 17:54 | 51.25238 | -107.33476 | 37862 ft | 389 kts | 287° |
| 2026-05-08 17:55 | 51.26179 | -107.41989 | 37802 ft | 389 kts | 286° |
| 2026-05-08 17:55 | 51.27110 | -107.50485 | 37832 ft | 388 kts | 286° |
| 2026-05-08 17:56 | 51.28036 | -107.58981 | 37845 ft | 388 kts | 286° |
| 2026-05-08 17:56 | 51.28955 | -107.67472 | 37853 ft | 388 kts | 286° |
| 2026-05-08 17:57 | 51.29867 | -107.75967 | 37842 ft | 388 kts | 286° |
| 2026-05-08 17:57 | 51.30773 | -107.84465 | 37848 ft | 388 kts | 286° |
| 2026-05-08 17:58 | 51.31673 | -107.92961 | 37852 ft | 388 kts | 286° |
| 2026-05-08 17:58 | 51.32564 | -108.01447 | 37843 ft | 386 kts | 285° |
| 2026-05-08 17:59 | 51.33449 | -108.09920 | 37848 ft | 386 kts | 285° |
| 2026-05-08 17:59 | 51.34328 | -108.18403 | 37860 ft | 386 kts | 285° |
| 2026-05-08 18:00 | 51.35201 | -108.26888 | 37843 ft | 387 kts | 285° |
| 2026-05-08 18:00 | 51.36494 | -108.39585 | 37844 ft | 387 kts | 285° |
| 2026-05-08 18:01 | 51.37354 | -108.48099 | 37844 ft | 388 kts | 285° |
| 2026-05-08 18:01 | 51.38205 | -108.56601 | 37843 ft | 386 kts | 285° |
| 2026-05-08 18:02 | 51.38914 | -108.63726 | 37845 ft | 387 kts | 285° |
| 2026-05-08 18:02 | 51.39891 | -108.73620 | 37844 ft | 387 kts | 284° |
| 2026-05-08 18:03 | 51.40726 | -108.82149 | 37849 ft | 388 kts | 284° |
| 2026-05-08 18:03 | 51.41556 | -108.90696 | 37851 ft | 388 kts | 284° |
| 2026-05-08 18:04 | 51.42245 | -108.99304 | 37853 ft | 392 kts | 280° |
| 2026-05-08 18:04 | 51.42509 | -109.08115 | 37858 ft | 400 kts | 279° |
| 2026-05-08 18:05 | 51.42722 | -109.17035 | 37863 ft | 401 kts | 279° |
| 2026-05-08 18:05 | 51.42953 | -109.25982 | 37856 ft | 402 kts | 279° |
| 2026-05-08 18:06 | 51.43196 | -109.34937 | 37848 ft | 402 kts | 279° |
| 2026-05-08 18:06 | 51.43440 | -109.43882 | 37847 ft | 402 kts | 279° |
| 2026-05-08 18:07 | 51.43679 | -109.52813 | 37837 ft | 401 kts | 279° |
| 2026-05-08 18:07 | 51.43910 | -109.61713 | 37838 ft | 399 kts | 278° |
| 2026-05-08 18:08 | 51.44134 | -109.70588 | 37845 ft | 398 kts | 278° |
| 2026-05-08 18:08 | 51.44351 | -109.79451 | 37844 ft | 398 kts | 278° |
| 2026-05-08 18:09 | 51.44561 | -109.88307 | 37841 ft | 398 kts | 278° |
| 2026-05-08 18:09 | 51.44764 | -109.97163 | 37845 ft | 397 kts | 278° |
| 2026-05-08 18:10 | 51.44961 | -110.06003 | 37835 ft | 397 kts | 278° |
| 2026-05-08 18:10 | 51.45150 | -110.14829 | 37837 ft | 396 kts | 278° |
| 2026-05-08 18:11 | 51.45332 | -110.23635 | 37851 ft | 395 kts | 278° |
| 2026-05-08 18:11 | 51.45507 | -110.32397 | 37862 ft | 396 kts | 278° |
| 2026-05-08 18:12 | 51.45676 | -110.41207 | 37851 ft | 396 kts | 278° |
| 2026-05-08 18:12 | 51.45839 | -110.50027 | 37853 ft | 396 kts | 278° |
| 2026-05-08 18:13 | 51.45995 | -110.58849 | 37816 ft | 396 kts | 277° |
| 2026-05-08 18:13 | 51.46143 | -110.67651 | 37844 ft | 395 kts | 277° |
| 2026-05-08 18:14 | 51.46286 | -110.76441 | 37857 ft | 394 kts | 277° |
| 2026-05-08 18:14 | 51.46421 | -110.85230 | 37860 ft | 394 kts | 277° |
| 2026-05-08 18:15 | 51.46550 | -110.94008 | 37862 ft | 394 kts | 277° |
| 2026-05-08 18:15 | 51.46673 | -111.02793 | 37864 ft | 394 kts | 277° |
| 2026-05-08 18:16 | 51.46789 | -111.11571 | 37824 ft | 393 kts | 277° |
| 2026-05-08 18:16 | 51.46897 | -111.20320 | 37857 ft | 392 kts | 277° |
| 2026-05-08 18:17 | 51.46999 | -111.29057 | 37862 ft | 392 kts | 277° |
| 2026-05-08 18:17 | 51.47096 | -111.37790 | 37863 ft | 392 kts | 277° |
| 2026-05-08 18:18 | 51.47185 | -111.46519 | 37863 ft | 391 kts | 277° |
| 2026-05-08 18:18 | 51.47255 | -111.53833 | 37865 ft | 391 kts | 277° |
| 2026-05-08 18:19 | 51.47332 | -111.62561 | 37744 ft | 392 kts | 276° |
| 2026-05-08 18:19 | 51.47371 | -111.66974 | 37266 ft | 397 kts | 276° |
| 2026-05-08 18:19 | 51.47403 | -111.71293 | 36990 ft | 388 kts | 276° |
| 2026-05-08 18:20 | 51.47435 | -111.75645 | 36037 ft | 392 kts | 276° |
| 2026-05-08 18:20 | 51.47465 | -111.79994 | 35490 ft | 388 kts | 277° |
| 2026-05-08 18:20 | 51.47493 | -111.84301 | 34985 ft | 384 kts | 277° |
| 2026-05-08 18:20 | 51.47520 | -111.88565 | 34486 ft | 380 kts | 277° |
| 2026-05-08 18:21 | 51.47544 | -111.92784 | 34003 ft | 377 kts | 277° |
| 2026-05-08 18:21 | 51.47568 | -111.96968 | 33479 ft | 373 kts | 277° |
| 2026-05-08 18:21 | 51.47590 | -112.01112 | 32970 ft | 370 kts | 277° |
| 2026-05-08 18:21 | 51.47611 | -112.05212 | 32492 ft | 366 kts | 277° |
| 2026-05-08 18:22 | 51.47630 | -112.09273 | 32028 ft | 362 kts | 277° |
| 2026-05-08 18:22 | 51.47647 | -112.13293 | 31573 ft | 359 kts | 277° |
| 2026-05-08 18:22 | 51.47664 | -112.17279 | 31112 ft | 355 kts | 276° |
| 2026-05-08 18:22 | 51.47678 | -112.21221 | 30678 ft | 352 kts | 276° |
| 2026-05-08 18:23 | 51.47692 | -112.25137 | 30249 ft | 350 kts | 276° |
| 2026-05-08 18:23 | 51.47704 | -112.29019 | 29800 ft | 347 kts | 276° |
| 2026-05-08 18:23 | 51.47714 | -112.32883 | 29297 ft | 344 kts | 276° |
| 2026-05-08 18:23 | 51.47723 | -112.36697 | 28838 ft | 340 kts | 276° |
| 2026-05-08 18:24 | 51.47731 | -112.40472 | 28362 ft | 337 kts | 276° |
| 2026-05-08 18:24 | 51.47737 | -112.44214 | 27924 ft | 334 kts | 276° |
| 2026-05-08 18:24 | 51.47742 | -112.47922 | 27465 ft | 331 kts | 276° |
| 2026-05-08 18:24 | 51.47747 | -112.51605 | 27019 ft | 329 kts | 276° |
| 2026-05-08 18:25 | 51.47750 | -112.55255 | 26581 ft | 326 kts | 275° |
| 2026-05-08 18:25 | 51.47752 | -112.58877 | 26147 ft | 324 kts | 275° |
| 2026-05-08 18:25 | 51.47753 | -112.62483 | 25714 ft | 322 kts | 275° |
| 2026-05-08 18:25 | 51.47752 | -112.66070 | 25262 ft | 321 kts | 275° |
| 2026-05-08 18:26 | 51.47752 | -112.69660 | 24846 ft | 323 kts | 275° |
| 2026-05-08 18:26 | 51.47751 | -112.73279 | 24414 ft | 327 kts | 275° |
| 2026-05-08 18:26 | 51.47749 | -112.76954 | 23968 ft | 333 kts | 274° |
| 2026-05-08 18:26 | 51.47745 | -112.80694 | 23501 ft | 338 kts | 274° |
| 2026-05-08 18:27 | 51.47738 | -112.84466 | 22960 ft | 337 kts | 274° |
| 2026-05-08 18:27 | 51.47732 | -112.86944 | 22653 ft | 335 kts | 274° |
| 2026-05-08 18:27 | 51.47719 | -112.91906 | 22019 ft | 331 kts | 274° |
| 2026-05-08 18:27 | 51.47708 | -112.95582 | 21566 ft | 328 kts | 274° |
| 2026-05-08 18:28 | 51.47697 | -112.99223 | 21106 ft | 325 kts | 274° |
| 2026-05-08 18:28 | 51.47685 | -113.02832 | 20658 ft | 322 kts | 274° |
| 2026-05-08 18:28 | 51.47673 | -113.06408 | 20220 ft | 319 kts | 274° |
| 2026-05-08 18:28 | 51.47660 | -113.09953 | 19793 ft | 317 kts | 274° |
| 2026-05-08 18:29 | 51.47646 | -113.13482 | 19352 ft | 315 kts | 274° |
| 2026-05-08 18:29 | 51.47630 | -113.16987 | 18915 ft | 314 kts | 274° |
| 2026-05-08 18:29 | 51.47613 | -113.20483 | 18481 ft | 312 kts | 273° |
| 2026-05-08 18:29 | 51.47466 | -113.23955 | 18037 ft | 315 kts | 262° |
| 2026-05-08 18:30 | 51.46770 | -113.27308 | 17563 ft | 319 kts | 250° |
| 2026-05-08 18:30 | 51.45617 | -113.30336 | 17083 ft | 326 kts | 237° |
| 2026-05-08 18:30 | 51.44189 | -113.33146 | 16648 ft | 325 kts | 235° |
| 2026-05-08 18:30 | 51.42730 | -113.35901 | 16205 ft | 323 kts | 234° |
| 2026-05-08 18:31 | 51.41276 | -113.38635 | 15769 ft | 321 kts | 234° |
| 2026-05-08 18:31 | 51.39836 | -113.41356 | 15346 ft | 319 kts | 234° |
| 2026-05-08 18:31 | 51.38411 | -113.44067 | 14937 ft | 317 kts | 234° |
| 2026-05-08 18:31 | 51.36998 | -113.46768 | 14523 ft | 316 kts | 234° |
| 2026-05-08 18:32 | 51.35588 | -113.49467 | 14100 ft | 315 kts | 234° |
| 2026-05-08 18:32 | 51.34186 | -113.52157 | 13678 ft | 314 kts | 234° |
| 2026-05-08 18:32 | 51.32791 | -113.54830 | 13193 ft | 314 kts | 234° |
| 2026-05-08 18:32 | 51.31397 | -113.57500 | 12747 ft | 312 kts | 233° |
| 2026-05-08 18:33 | 51.30011 | -113.60147 | 12327 ft | 309 kts | 233° |
| 2026-05-08 18:33 | 51.28636 | -113.62773 | 11913 ft | 307 kts | 233° |
| 2026-05-08 18:33 | 51.27267 | -113.65386 | 11504 ft | 306 kts | 233° |
| 2026-05-08 18:33 | 51.25905 | -113.67983 | 11088 ft | 304 kts | 233° |
| 2026-05-08 18:34 | 51.24548 | -113.70570 | 10684 ft | 303 kts | 233° |
| 2026-05-08 18:34 | 51.23197 | -113.73142 | 10284 ft | 301 kts | 232° |
| 2026-05-08 18:34 | 51.21878 | -113.75650 | 10164 ft | 289 kts | 233° |
| 2026-05-08 18:34 | 51.20603 | -113.78065 | 10020 ft | 279 kts | 233° |
| 2026-05-08 18:35 | 51.19379 | -113.80390 | 9679 ft | 277 kts | 233° |
| 2026-05-08 18:35 | 51.18142 | -113.82722 | 9354 ft | 274 kts | 230° |
| 2026-05-08 18:35 | 51.16573 | -113.84455 | 8978 ft | 279 kts | 201° |
| 2026-05-08 18:35 | 51.14663 | -113.84944 | 8684 ft | 280 kts | 184° |
| 2026-05-08 18:36 | 51.12721 | -113.84996 | 8404 ft | 277 kts | 181° |
| 2026-05-08 18:36 | 51.10838 | -113.84941 | 8286 ft | 267 kts | 181° |
| 2026-05-08 18:36 | 51.09006 | -113.84898 | 8154 ft | 259 kts | 181° |
| 2026-05-08 18:36 | 51.07236 | -113.84952 | 8025 ft | 253 kts | 179° |
| 2026-05-08 18:37 | 51.05513 | -113.84796 | 7920 ft | 244 kts | 181° |
| 2026-05-08 18:37 | 51.03810 | -113.84784 | 7648 ft | 245 kts | 182° |
| 2026-05-08 18:37 | 51.02118 | -113.84336 | 7383 ft | 249 kts | 166° |
| 2026-05-08 18:37 | 51.00453 | -113.84492 | 7086 ft | 236 kts | 216° |
| 2026-05-08 18:38 | 50.99471 | -113.86413 | 6957 ft | 225 kts | 252° |
| 2026-05-08 18:38 | 50.98768 | -113.88579 | 6710 ft | 223 kts | 227° |
| 2026-05-08 18:38 | 50.97706 | -113.90285 | 6455 ft | 211 kts | 245° |
| 2026-05-08 18:38 | 50.97568 | -113.92380 | 6303 ft | 184 kts | 294° |
| 2026-05-08 18:39 | 50.98219 | -113.94028 | 6084 ft | 171 kts | 310° |
| 2026-05-08 18:39 | 50.98894 | -113.95429 | 6059 ft | 153 kts | 309° |
| 2026-05-08 18:39 | 50.99534 | -113.96780 | 5741 ft | 154 kts | 312° |
| 2026-05-08 18:39 | 51.00322 | -113.97845 | 5574 ft | 146 kts | 327° |
| 2026-05-08 18:40 | 51.01208 | -113.98591 | 5410 ft | 144 kts | 338° |
| 2026-05-08 18:40 | 51.02167 | -113.99007 | 5223 ft | 144 kts | 352° |
| 2026-05-08 18:40 | 51.03177 | -113.99048 | 5040 ft | 147 kts | 358° |
| 2026-05-08 18:40 | 51.04223 | -113.99033 | 4941 ft | 152 kts | 359° |
| 2026-05-08 18:41 | 51.05275 | -113.99037 | 4768 ft | 151 kts | 358° |
| 2026-05-08 18:41 | 51.06339 | -113.99038 | 4519 ft | 154 kts | 358° |
| 2026-05-08 18:41 | 51.07408 | -113.99043 | 4277 ft | 154 kts | 358° |
| 2026-05-08 18:41 | 51.08464 | -113.99042 | 4088 ft | 153 kts | 358° |
| 2026-05-08 18:42 | 51.09532 | -113.99049 | 3866 ft | 154 kts | 359° |
| 2026-05-08 18:42 | 51.10604 | -113.99039 | 3684 ft | 153 kts | 359° |
| 2026-05-08 18:42 | 51.11630 | -113.99035 | 3559 ft | 138 kts | 359° |
| 2026-05-08 18:42 | 51.12479 | -113.99036 | 3563 ft | 105 kts | 359° |
| 2026-05-08 18:43 | 51.12904 | -113.99055 | 3560 ft | 33 kts | 347° |
| 2026-05-08 18:43 | 51.13063 | -113.99164 | 3559 ft | 23 kts | 330° |
| 2026-05-08 18:43 | 51.13077 | -113.99295 | 3558 ft | 15 kts | 204° |